createdAt,value
2018-04-27T00:01:53.167Z,99839.39
2018-04-27T00:04:20.683Z,99844.23
2018-04-27T00:06:48.169Z,99843.08
2018-04-27T00:09:15.680Z,99845.75
2018-04-27T00:11:43.232Z,99835.66
2018-04-27T00:14:10.711Z,99848.89
2018-04-27T00:16:38.198Z,99844.44
2018-04-27T00:19:05.711Z,99841.95
2018-04-27T00:21:33.251Z,99842.41
2018-04-27T00:24:00.774Z,99843.38
2018-04-27T00:26:28.274Z,99844.94
2018-04-27T00:28:55.784Z,99844.94
2018-04-27T00:31:23.374Z,99840.31
2018-04-27T00:33:50.878Z,99841.63
2018-04-27T00:36:18.378Z,99843.05
2018-04-27T00:38:45.848Z,99853.72
2018-04-27T00:41:13.407Z,99846.64
2018-04-27T00:43:40.893Z,99845.72
2018-04-27T00:46:08.474Z,99844.04
2018-04-27T00:48:35.953Z,99838.69
2018-04-27T00:51:03.866Z,99832.98
2018-04-27T00:53:31.321Z,99829.08
2018-04-27T00:55:58.804Z,99830.84
2018-04-27T00:58:26.254Z,99829.01
2018-04-27T01:00:53.710Z,99837.47
2018-04-27T01:03:21.193Z,99825.56
2018-04-27T01:05:48.648Z,99817.53
2018-04-27T01:08:16.130Z,99827.41
2018-04-27T01:10:43.663Z,99822.78
2018-04-27T01:13:11.226Z,99826.69
2018-04-27T01:15:38.680Z,99825.34
2018-04-27T01:18:06.570Z,99824.52
2018-04-27T01:20:34.035Z,99821.86
2018-04-27T01:23:01.491Z,99831.70
2018-04-27T01:25:28.958Z,99822.42
2018-04-27T01:27:56.406Z,99818.64
2018-04-27T01:30:23.865Z,99814.41
2018-04-27T01:32:51.352Z,99812.44
2018-04-27T01:35:18.812Z,99807.75
2018-04-27T01:37:46.287Z,99804.58
2018-04-27T01:40:13.742Z,99801.05
2018-04-27T01:42:41.212Z,99805.03
2018-04-27T01:45:09.354Z,99800.00
2018-04-27T01:47:36.798Z,99800.08
2018-04-27T01:50:04.269Z,99798.45
2018-04-27T01:52:31.702Z,99801.43
2018-04-27T01:54:59.157Z,99797.23
2018-04-27T01:57:26.607Z,99796.91
2018-04-27T01:59:54.069Z,99799.98
2018-04-27T02:02:21.509Z,99798.34
2018-04-27T02:04:48.951Z,99807.83
2018-04-27T02:07:16.407Z,99806.99
2018-04-27T02:09:43.854Z,99807.00
2018-04-27T02:12:11.335Z,99798.14
2018-04-27T02:14:38.795Z,99796.88
2018-04-27T02:17:06.237Z,99798.55
2018-04-27T02:19:33.689Z,99799.84
2018-04-27T02:22:01.150Z,99800.64
2018-04-27T02:24:28.604Z,99800.63
2018-04-27T02:26:56.079Z,99801.44
2018-04-27T02:29:23.513Z,99794.63
2018-04-27T02:31:50.954Z,99790.81
2018-04-27T02:34:18.424Z,99796.36
2018-04-27T02:36:45.872Z,99799.33
2018-04-27T02:39:13.308Z,99794.67
2018-04-27T02:41:40.766Z,99797.25
2018-04-27T02:44:08.619Z,99792.61
2018-04-27T02:46:36.069Z,99786.25
2018-04-27T02:49:03.535Z,99783.28
2018-04-27T02:51:30.993Z,99785.73
2018-04-27T02:53:58.458Z,99782.73
2018-04-27T02:56:25.906Z,99781.39
2018-04-27T02:58:53.412Z,99785.67
2018-04-27T03:01:20.860Z,99785.75
2018-04-27T03:03:49.737Z,99790.50
2018-04-27T03:06:17.203Z,99786.70
2018-04-27T03:08:44.653Z,99788.85
2018-04-27T03:11:12.117Z,99790.56
2018-04-27T03:13:39.577Z,99794.81
2018-04-27T03:16:07.032Z,99788.08
2018-04-27T03:18:34.481Z,99789.84
2018-04-27T03:21:01.937Z,99790.72
2018-04-27T03:23:29.397Z,99789.09
2018-04-27T03:25:57.517Z,99796.30
2018-04-27T03:28:24.983Z,99786.97
2018-04-27T03:30:52.444Z,99790.78
2018-04-27T03:33:19.900Z,99781.44
2018-04-27T03:35:47.397Z,99786.14
2018-04-27T03:38:14.853Z,99791.22
2018-04-27T03:40:42.321Z,99784.42
2018-04-27T03:43:09.810Z,99781.88
2018-04-27T03:45:37.261Z,99780.16
2018-04-27T03:48:04.726Z,99792.08
2018-04-27T03:50:32.177Z,99796.33
2018-04-27T03:52:59.634Z,99798.44
2018-04-27T03:55:27.078Z,99795.45
2018-04-27T03:57:54.520Z,99798.86
2018-04-27T04:00:33.762Z,99795.84
2018-04-27T04:03:12.890Z,99795.44
2018-04-27T04:05:40.399Z,99794.57
2018-04-27T04:08:07.861Z,99794.10
2018-04-27T04:10:35.330Z,99797.03
2018-04-27T04:13:02.797Z,99795.72
2018-04-27T04:15:30.241Z,99795.68
2018-04-27T04:17:57.689Z,99804.98
2018-04-27T04:20:25.165Z,99802.81
2018-04-27T04:22:52.619Z,99810.86
2018-04-27T04:25:20.114Z,99805.64
2018-04-27T04:27:47.572Z,99809.41
2018-04-27T04:30:15.109Z,99808.95
2018-04-27T04:32:42.631Z,99815.67
2018-04-27T04:35:10.092Z,99813.83
2018-04-27T04:37:37.553Z,99815.84
2018-04-27T04:40:05.033Z,99816.05
2018-04-27T04:42:32.618Z,99811.82
2018-04-27T04:45:00.130Z,99818.16
2018-04-27T04:47:27.601Z,99813.75
2018-04-27T04:49:55.176Z,99814.05
2018-04-27T04:52:23.222Z,99817.41
2018-04-27T04:54:50.775Z,99815.66
2018-04-27T04:57:18.269Z,99826.19
2018-04-27T04:59:45.721Z,99818.48
2018-04-27T05:02:13.198Z,99824.84
2018-04-27T05:04:40.658Z,99825.09
2018-04-27T05:07:08.101Z,99827.13
2018-04-27T05:09:35.576Z,99831.67
2018-04-27T05:12:03.042Z,99830.73
2018-04-27T05:14:30.546Z,99828.91
2018-04-27T05:16:58.036Z,99834.77
2018-04-27T05:19:25.481Z,99830.77
2018-04-27T05:21:52.946Z,99832.77
2018-04-27T05:24:20.515Z,99830.94
2018-04-27T05:26:47.958Z,99835.89
2018-04-27T05:29:15.435Z,99827.67
2018-04-27T05:31:42.969Z,99828.81
2018-04-27T05:34:10.447Z,99832.36
2018-04-27T05:36:37.930Z,99834.88
2018-04-27T05:39:06.323Z,99830.02
2018-04-27T05:41:33.814Z,99829.83
2018-04-27T05:44:01.294Z,99830.41
2018-04-27T05:46:28.805Z,99829.81
2018-04-27T05:48:56.396Z,99827.15
2018-04-27T05:51:23.793Z,99828.69
2018-04-27T05:53:51.248Z,99824.61
2018-04-27T05:56:18.783Z,99828.00
2018-04-27T05:58:46.270Z,99826.14
2018-04-27T06:01:13.750Z,99826.11
2018-04-27T06:03:53.001Z,99827.27
2018-04-27T06:06:20.452Z,99822.92
2018-04-27T06:08:47.901Z,99823.07
2018-04-27T06:11:15.399Z,99827.94
2018-04-27T06:13:42.860Z,99826.94
2018-04-27T06:16:10.446Z,99827.60
2018-04-27T06:18:37.879Z,99820.48
2018-04-27T06:21:06.340Z,99822.34
2018-04-27T06:23:33.816Z,99820.19
2018-04-27T06:26:01.269Z,99819.41
2018-04-27T06:28:28.777Z,99817.20
2018-04-27T06:30:56.235Z,99822.12
2018-04-27T06:33:23.722Z,99820.99
2018-04-27T06:35:51.186Z,99825.55
2018-04-27T06:38:18.643Z,99822.84
2018-04-27T06:40:46.114Z,99820.13
2018-04-27T06:43:13.610Z,99814.74
2018-04-27T06:45:41.067Z,99812.97
2018-04-27T06:48:08.564Z,99817.95
2018-04-27T06:50:36.031Z,99813.14
2018-04-27T06:53:03.487Z,99818.28
2018-04-27T06:55:30.972Z,99812.48
2018-04-27T06:57:58.445Z,99809.13
2018-04-27T07:00:25.910Z,99808.48
2018-04-27T07:02:53.387Z,99812.28
2018-04-27T07:05:20.922Z,99799.72
2018-04-27T07:07:48.359Z,99798.86
2018-04-27T07:10:15.828Z,99793.70
2018-04-27T07:12:43.357Z,99791.45
2018-04-27T07:15:10.844Z,99787.95
2018-04-27T07:17:38.278Z,99793.47
2018-04-27T07:20:05.763Z,99790.88
2018-04-27T07:22:33.295Z,99790.53
2018-04-27T07:25:00.751Z,99787.66
2018-04-27T07:27:28.238Z,99778.17
2018-04-27T07:29:55.706Z,99780.89
2018-04-27T07:32:23.177Z,99791.85
2018-04-27T07:34:50.670Z,99795.20
2018-04-27T07:37:18.166Z,99793.83
2018-04-27T07:39:45.668Z,99790.97
2018-04-27T07:42:13.231Z,99788.84
2018-04-27T07:44:40.733Z,99784.58
2018-04-27T07:47:08.211Z,99783.16
2018-04-27T07:49:35.746Z,99788.39
2018-04-27T07:52:03.231Z,99790.22
2018-04-27T07:54:30.711Z,99799.47
2018-04-27T07:56:58.194Z,99791.77
2018-04-27T07:59:25.674Z,99797.27
2018-04-27T08:01:53.248Z,99797.83
2018-04-27T08:04:20.713Z,99797.67
2018-04-27T08:06:48.237Z,99800.44
2018-04-27T08:09:15.723Z,99795.44
2018-04-27T08:11:43.239Z,99803.20
2018-04-27T08:14:10.748Z,99800.31
2018-04-27T08:16:39.126Z,99796.38
2018-04-27T08:19:07.394Z,99788.66
2018-04-27T08:21:34.888Z,99787.72
2018-04-27T08:24:02.394Z,99790.14
2018-04-27T08:26:29.952Z,99784.56
2018-04-27T08:29:05.137Z,99785.90
2018-04-27T08:31:32.684Z,99782.89
2018-04-27T08:34:00.205Z,99780.32
2018-04-27T08:36:27.676Z,99769.51
2018-04-27T08:38:55.174Z,99770.47
2018-04-27T08:41:22.649Z,99778.88
2018-04-27T08:43:50.188Z,99767.88
2018-04-27T08:46:17.626Z,99762.99
2018-04-27T08:48:45.088Z,99766.09
2018-04-27T08:51:12.591Z,99771.82
2018-04-27T08:53:40.130Z,99766.00
2018-04-27T08:56:07.655Z,99763.28
2018-04-27T08:58:35.154Z,99763.41
2018-04-27T09:01:02.651Z,99760.22
2018-04-27T09:03:30.115Z,99760.54
2018-04-27T09:05:57.579Z,99754.60
2018-04-27T09:08:25.173Z,99751.73
2018-04-27T09:10:52.695Z,99751.91
2018-04-27T09:13:20.818Z,99746.31
2018-04-27T09:15:49.362Z,99743.38
2018-04-27T09:18:16.851Z,99741.56
2018-04-27T09:20:44.322Z,99733.50
2018-04-27T09:23:11.784Z,99729.07
2018-04-27T09:25:39.445Z,99727.97
2018-04-27T09:28:06.976Z,99731.45
2018-04-27T09:30:34.438Z,99723.78
2018-04-27T09:33:01.907Z,99726.30
2018-04-27T09:35:29.365Z,99717.92
2018-04-27T09:37:56.906Z,99711.97
2018-04-27T09:40:24.355Z,99715.17
2018-04-27T09:42:51.836Z,99710.22
2018-04-27T09:45:19.338Z,99705.78
2018-04-27T09:47:46.844Z,99696.30
2018-04-27T09:50:14.433Z,99683.34
2018-04-27T09:52:41.908Z,99677.58
2018-04-27T09:55:09.359Z,99679.09
2018-04-27T09:57:36.827Z,99675.73
2018-04-27T10:00:04.366Z,99670.11
2018-04-27T10:02:31.855Z,99665.98
2018-04-27T10:04:59.344Z,99662.89
2018-04-27T10:07:26.908Z,99664.24
2018-04-27T10:09:54.402Z,99663.67
2018-04-27T10:12:21.901Z,99655.67
2018-04-27T10:14:49.380Z,99664.97
2018-04-27T10:17:16.902Z,99658.99
2018-04-27T10:19:44.375Z,99655.80
2018-04-27T10:22:11.863Z,99651.12
2018-04-27T10:24:39.366Z,99643.05
2018-04-27T10:27:06.903Z,99627.66
2018-04-27T10:29:34.420Z,99631.69
2018-04-27T10:32:01.919Z,99636.92
2018-04-27T10:34:29.458Z,99625.48
2018-04-27T10:36:56.929Z,99618.00
2018-04-27T10:39:24.500Z,99616.61
2018-04-27T10:41:51.997Z,99611.05
2018-04-27T10:44:19.500Z,99607.55
2018-04-27T10:46:46.980Z,99597.16
2018-04-27T10:49:14.549Z,99594.76
2018-04-27T10:51:42.039Z,99588.45
2018-04-27T10:54:09.666Z,99584.98
2018-04-27T10:56:37.185Z,99575.52
2018-04-27T10:59:04.662Z,99568.15
2018-04-27T11:01:32.236Z,99569.98
2018-04-27T11:03:59.753Z,99572.20
2018-04-27T11:06:27.316Z,99550.45
2018-04-27T11:08:54.815Z,99556.83
2018-04-27T11:11:22.408Z,99539.75
2018-04-27T11:13:49.978Z,99549.73
2018-04-27T11:16:17.510Z,99539.92
2018-04-27T11:18:45.494Z,99539.92
2018-04-27T11:21:13.315Z,99538.16
2018-04-27T11:23:41.566Z,99540.09
2018-04-27T11:26:09.093Z,99534.55
2018-04-27T11:28:36.581Z,99531.61
2018-04-27T11:31:04.050Z,99522.19
2018-04-27T11:33:31.547Z,99521.55
2018-04-27T11:35:59.102Z,99518.16
2018-04-27T11:38:26.594Z,99505.03
2018-04-27T11:40:55.444Z,99505.58
2018-04-27T11:43:22.921Z,99496.43
2018-04-27T11:45:51.406Z,99497.42
2018-04-27T11:48:18.906Z,99500.45
2018-04-27T11:50:46.390Z,99498.85
2018-04-27T11:53:13.888Z,99485.73
2018-04-27T11:55:41.382Z,99492.05
2018-04-27T11:58:08.995Z,99495.59
2018-04-27T12:00:36.560Z,99481.99
2018-04-27T12:03:04.050Z,99476.71
2018-04-27T12:05:31.541Z,99475.72
2018-04-27T12:07:59.075Z,99469.50
2018-04-27T12:10:26.638Z,99462.63
2018-04-27T12:12:54.131Z,99458.69
2018-04-27T12:15:21.633Z,99455.73
2018-04-27T12:17:49.090Z,99453.42
2018-04-27T12:20:16.584Z,99443.14
2018-04-27T12:22:44.086Z,99448.62
2018-04-27T12:25:11.566Z,99411.48
2018-04-27T12:27:39.060Z,99432.19
2018-04-27T12:30:06.603Z,99418.90
2018-04-27T12:32:34.081Z,99417.80
2018-04-27T12:35:01.581Z,99416.73
2018-04-27T12:37:29.078Z,99398.23
2018-04-27T12:39:56.575Z,99396.97
2018-04-27T12:42:24.085Z,99398.36
2018-04-27T12:44:51.602Z,99391.30
2018-04-27T12:47:19.146Z,99381.41
2018-04-27T12:49:46.658Z,99376.91
2018-04-27T12:52:14.164Z,99372.91
2018-04-27T12:54:42.615Z,99357.95
2018-04-27T12:57:10.120Z,99362.23
2018-04-27T12:59:37.598Z,99361.11
2018-04-27T13:02:05.075Z,99360.77
2018-04-27T13:04:32.542Z,99360.55
2018-04-27T13:07:00.043Z,99351.55
2018-04-27T13:09:27.517Z,99356.37
2018-04-27T13:11:55.039Z,99349.30
2018-04-27T13:14:22.530Z,99347.67
2018-04-27T13:16:50.067Z,99343.00
2018-04-27T13:19:17.539Z,99346.48
2018-04-27T13:21:44.999Z,99350.23
2018-04-27T13:24:12.549Z,99341.89
2018-04-27T13:26:40.071Z,99328.11
2018-04-27T13:29:07.576Z,99337.09
2018-04-27T13:31:35.084Z,99328.17
2018-04-27T13:34:02.560Z,99320.39
2018-04-27T13:36:30.028Z,99324.08
2018-04-27T13:39:15.001Z,99326.69
2018-04-27T13:41:43.850Z,99309.34
2018-04-27T13:44:11.352Z,99305.94
2018-04-27T13:46:38.869Z,99302.41
2018-04-27T13:49:06.336Z,99303.80
2018-04-27T13:51:33.841Z,99295.51
2018-04-27T13:54:01.377Z,99297.02
2018-04-27T13:56:28.919Z,99299.14
2018-04-27T13:58:56.405Z,99299.24
2018-04-27T14:01:23.917Z,99293.41
2018-04-27T14:03:52.360Z,99302.94
2018-04-27T14:06:19.847Z,99292.07
2018-04-27T14:08:52.062Z,99280.95
2018-04-27T14:11:19.679Z,99273.78
2018-04-27T14:13:47.249Z,99274.38
2018-04-27T14:16:14.763Z,99268.00
2018-04-27T14:18:42.280Z,99265.66
2018-04-27T14:21:09.773Z,99259.70
2018-04-27T14:23:37.263Z,99260.16
2018-04-27T14:26:04.747Z,99249.36
2018-04-27T14:28:32.225Z,99240.22
2018-04-27T14:30:59.687Z,99234.99
2018-04-27T14:33:27.164Z,99235.05
2018-04-27T14:35:54.652Z,99236.35
2018-04-27T14:38:22.113Z,99244.84
2018-04-27T14:40:49.621Z,99237.45
2018-04-27T14:43:17.099Z,99232.42
2018-04-27T14:45:44.591Z,99231.80
2018-04-27T14:48:12.151Z,99226.48
2018-04-27T14:50:41.308Z,99231.54
2018-04-27T14:53:08.830Z,99225.73
2018-04-27T14:55:36.437Z,99222.27
2018-04-27T14:58:04.000Z,99223.92
2018-04-27T15:00:31.557Z,99219.84
2018-04-27T15:02:59.237Z,99214.26
2018-04-27T15:05:26.733Z,99204.44
2018-04-27T15:07:54.321Z,99213.19
2018-04-27T15:10:22.185Z,99210.34
2018-04-27T15:12:49.777Z,99200.89
2018-04-27T15:15:17.478Z,99203.80
2018-04-27T15:17:45.046Z,99197.92
2018-04-27T15:20:12.576Z,99201.69
2018-04-27T15:22:40.066Z,99195.95
2018-04-27T15:25:07.593Z,99197.19
2018-04-27T15:27:35.314Z,99208.13
2018-04-27T15:30:02.830Z,99203.11
2018-04-27T15:32:30.367Z,99196.98
2018-04-27T15:34:57.884Z,99201.73
2018-04-27T15:37:25.444Z,99186.73
2018-04-27T15:39:52.999Z,99189.46
2018-04-27T15:42:20.601Z,99198.44
2018-04-27T15:44:48.124Z,99195.67
2018-04-27T15:47:15.648Z,99200.55
2018-04-27T15:49:43.219Z,99199.47
2018-04-27T15:52:10.807Z,99202.14
2018-04-27T15:54:38.347Z,99195.88
2018-04-27T15:57:05.955Z,99207.19
2018-04-27T15:59:33.518Z,99200.20
2018-04-27T16:02:01.100Z,99206.69
2018-04-27T16:04:28.730Z,99207.91
2018-04-27T16:06:57.312Z,99201.76
2018-04-27T16:09:25.107Z,99195.41
2018-04-27T16:11:52.692Z,99202.56
2018-04-27T16:14:20.254Z,99191.28
2018-04-27T16:16:47.819Z,99187.23
2018-04-27T16:19:15.336Z,99182.34
2018-04-27T16:21:42.897Z,99178.00
2018-04-27T16:24:10.459Z,99174.66
2018-04-27T16:26:38.110Z,99172.58
2018-04-27T16:29:05.710Z,99176.48
2018-04-27T16:31:33.404Z,99178.63
2018-04-27T16:34:01.012Z,99171.44
2018-04-27T16:36:29.123Z,99164.02
2018-04-27T16:38:56.655Z,99166.69
2018-04-27T16:41:24.768Z,99163.63
2018-04-27T16:43:52.450Z,99161.30
2018-04-27T16:46:19.967Z,99166.28
2018-04-27T16:48:47.528Z,99164.28
2018-04-27T16:51:15.827Z,99162.11
2018-04-27T16:53:43.335Z,99160.19
2018-04-27T16:56:10.857Z,99156.44
2018-04-27T16:58:38.372Z,99150.16
2018-04-27T17:01:05.902Z,99153.14
2018-04-27T17:03:33.471Z,99154.28
2018-04-27T17:06:06.778Z,99148.98
2018-04-27T17:08:34.366Z,99149.04
2018-04-27T17:11:01.933Z,99148.92
2018-04-27T17:13:29.493Z,99163.16
2018-04-27T17:15:57.033Z,99149.93
2018-04-27T17:18:25.774Z,99159.72
2018-04-27T17:20:53.344Z,99143.89
2018-04-27T17:23:20.853Z,99145.28
2018-04-27T17:25:48.412Z,99150.10
2018-04-27T17:28:15.989Z,99151.97
2018-04-27T17:30:43.615Z,99148.63
2018-04-27T17:33:11.241Z,99153.30
2018-04-27T17:35:38.744Z,99152.05
2018-04-27T17:38:06.306Z,99146.77
2018-04-27T17:40:33.852Z,99160.66
2018-04-27T17:43:01.470Z,99161.66
2018-04-27T17:45:28.982Z,99155.36
2018-04-27T17:47:56.538Z,99156.34
2018-04-27T17:50:24.099Z,99155.25
2018-04-27T17:52:51.635Z,99163.95
2018-04-27T17:55:19.231Z,99165.55
2018-04-27T17:57:46.716Z,99169.52
2018-04-27T18:00:14.287Z,99166.67
2018-04-27T18:02:41.799Z,99171.09
2018-04-27T18:05:09.307Z,99166.83
2018-04-27T18:07:36.804Z,99171.94
2018-04-27T18:10:04.337Z,99175.13
2018-04-27T18:12:31.944Z,99174.58
2018-04-27T18:14:59.476Z,99168.27
2018-04-27T18:17:27.047Z,99175.98
2018-04-27T18:19:54.551Z,99167.50
2018-04-27T18:22:22.110Z,99170.36
2018-04-27T18:24:49.624Z,99176.94
2018-04-27T18:27:17.166Z,99176.84
2018-04-27T18:29:44.747Z,99175.30
2018-04-27T18:32:12.240Z,99172.45
2018-04-27T18:34:40.009Z,99177.30
2018-04-27T18:37:07.570Z,99166.03
2018-04-27T18:39:35.108Z,99175.16
2018-04-27T18:42:02.639Z,99176.14
2018-04-27T18:44:30.157Z,99184.03
2018-04-27T18:46:57.816Z,99178.10
2018-04-27T18:49:25.379Z,99182.77
2018-04-27T18:51:52.955Z,99184.55
2018-04-27T18:54:20.488Z,99183.23
2018-04-27T18:56:48.877Z,99184.55
2018-04-27T18:59:16.412Z,99184.02
2018-04-27T19:01:43.911Z,99179.27
2018-04-27T19:04:11.462Z,99181.51
2018-04-27T19:06:39.032Z,99181.54
2018-04-27T19:09:06.583Z,99186.57
2018-04-27T19:11:34.188Z,99185.56
2018-04-27T19:14:01.732Z,99182.52
2018-04-27T19:16:29.286Z,99192.37
2018-04-27T19:18:56.815Z,99198.28
2018-04-27T19:21:24.400Z,99197.73
2018-04-27T19:23:52.672Z,99196.44
2018-04-27T19:26:21.188Z,99196.62
2018-04-27T19:28:48.714Z,99197.06
2018-04-27T19:31:16.230Z,99194.67
2018-04-27T19:33:43.883Z,99186.37
2018-04-27T19:36:11.424Z,99186.37
2018-04-27T19:38:39.092Z,99179.97
2018-04-27T19:41:06.564Z,99187.84
2018-04-27T19:43:34.053Z,99186.77
2018-04-27T19:46:01.594Z,99190.84
2018-04-27T19:48:29.889Z,99183.73
2018-04-27T19:50:57.493Z,99185.50
2018-04-27T19:53:25.025Z,99184.63
2018-04-27T19:55:52.555Z,99174.46
2018-04-27T19:58:20.091Z,99182.70
2018-04-27T20:00:47.603Z,99181.78
2018-04-27T20:03:15.136Z,99174.45
2018-04-27T20:05:44.505Z,99167.81
2018-04-27T20:08:12.038Z,99169.76
2018-04-27T20:10:42.589Z,99159.88
2018-04-27T20:13:12.998Z,99159.11
2018-04-27T20:15:41.422Z,99161.05
2018-04-27T20:18:21.509Z,99161.24
2018-04-27T20:20:49.113Z,99154.16
2018-04-27T20:23:17.524Z,99150.66
2018-04-27T20:25:47.938Z,99155.16
2018-04-27T20:28:15.527Z,99155.19
2018-04-27T20:30:43.106Z,99153.86
2018-04-27T20:33:14.508Z,99158.42
2018-04-27T20:35:42.161Z,99152.52
2018-04-27T20:38:15.275Z,99152.26
2018-04-27T20:40:42.884Z,99156.05
2018-04-27T20:43:12.228Z,99161.10
2018-04-27T20:45:39.759Z,99160.66
2018-04-27T20:51:03.394Z,99161.14
2018-04-27T20:53:31.722Z,99157.94
2018-04-27T20:56:06.133Z,99156.16
2018-04-27T20:58:33.679Z,99155.87
2018-04-27T21:01:01.189Z,99156.23
2018-04-27T21:03:28.748Z,99148.62
2018-04-27T21:05:56.314Z,99144.30
2018-04-27T21:08:23.893Z,99146.46
2018-04-27T21:10:51.415Z,99148.17
2018-04-27T21:13:19.138Z,99149.69
2018-04-27T21:15:46.648Z,99144.89
2018-04-27T21:18:16.072Z,99153.88
2018-04-27T21:20:43.648Z,99151.47
2018-04-27T21:23:11.359Z,99161.64
2018-04-27T21:25:38.884Z,99165.41
2018-04-27T21:28:06.407Z,99162.80
2018-04-27T21:30:33.907Z,99168.28
2018-04-27T21:33:04.415Z,99173.52
2018-04-27T21:35:34.763Z,99175.47
2018-04-27T21:38:08.990Z,99168.81
2018-04-27T21:40:36.507Z,99167.84
2018-04-27T21:43:04.048Z,99165.39
2018-04-27T21:45:31.946Z,99163.42
2018-04-27T21:47:59.474Z,99163.73
2018-04-27T21:50:26.972Z,99163.82
2018-04-27T21:52:54.575Z,99159.22
2018-04-27T21:55:22.091Z,99156.52
2018-04-27T21:58:09.246Z,99157.64
2018-04-27T22:00:36.828Z,99160.77
2018-04-27T22:03:10.276Z,99155.09
2018-04-27T22:05:50.522Z,99159.60
2018-04-27T22:08:21.402Z,99149.91
2018-04-27T22:10:49.717Z,99144.88
2018-04-27T22:13:18.966Z,99143.89
2018-04-27T22:15:46.514Z,99142.95
2018-04-27T22:18:13.990Z,99148.80
2018-04-27T22:20:47.297Z,99144.12
2018-04-27T22:23:15.405Z,99143.58
2018-04-27T22:25:43.756Z,99155.16
2018-04-27T22:28:11.354Z,99159.64
2018-04-27T22:30:39.630Z,99165.09
2018-04-27T22:33:15.026Z,99170.11
2018-04-27T22:35:47.313Z,99173.56
2018-04-27T22:41:19.578Z,99170.20
2018-04-27T22:43:58.179Z,99173.41
2018-04-27T22:46:25.683Z,99169.95
2018-04-27T22:49:03.097Z,99172.52
2018-04-27T22:51:35.529Z,99163.80
2018-04-27T22:54:04.727Z,99172.98
2018-04-27T22:56:47.562Z,99170.70
2018-04-27T22:59:15.082Z,99164.58
2018-04-27T23:01:42.607Z,99163.81
2018-04-27T23:04:10.173Z,99164.88
2018-04-27T23:06:37.702Z,99162.41
2018-04-27T23:09:05.271Z,99157.96
2018-04-27T23:11:32.786Z,99158.30
2018-04-27T23:14:10.258Z,99155.05
2018-04-27T23:16:37.819Z,99150.28
2018-04-27T23:19:08.259Z,99141.93
2018-04-27T23:21:38.255Z,99143.45
2018-04-27T23:24:06.560Z,99142.47
2018-04-27T23:26:34.144Z,99138.94
2018-04-27T23:29:01.659Z,99139.09
2018-04-27T23:31:29.228Z,99140.47
2018-04-27T23:33:56.776Z,99142.03
2018-04-27T23:36:24.325Z,99143.90
2018-04-27T23:38:51.855Z,99141.83
2018-04-27T23:41:19.381Z,99140.20
2018-04-27T23:43:46.896Z,99143.48
2018-04-27T23:46:14.420Z,99143.53
2018-04-27T23:48:41.972Z,99143.48
2018-04-27T23:51:09.485Z,99144.06
2018-04-27T23:53:37.973Z,99130.64
2018-04-27T23:56:07.660Z,99132.44
2018-04-27T23:58:35.232Z,99131.56
